sensor_id;sensor_type;location;lat;lon;timestamp;noise_LAeq;noise_LA_min;noise_LA_max;noise_LA01;noise_LA95
37162;Laerm;68342;52.598;13.450;2024-03-02T00:01:48;42.85;34.17;54.32;;
37162;Laerm;68342;52.598;13.450;2024-03-02T00:04:13;38.40;32.41;55.40;;
37162;Laerm;68342;52.598;13.450;2024-03-02T00:06:38;39.11;32.65;56.81;;
37162;Laerm;68342;52.598;13.450;2024-03-02T00:09:03;40.68;32.95;54.03;;
37162;Laerm;68342;52.598;13.450;2024-03-02T00:11:29;37.72;32.31;55.71;;
37162;Laerm;68342;52.598;13.450;2024-03-02T00:13:54;37.46;31.31;55.61;;
37162;Laerm;68342;52.598;13.450;2024-03-02T00:16:19;38.23;32.33;57.54;;
37162;Laerm;68342;52.598;13.450;2024-03-02T00:18:45;37.98;32.20;54.82;;
37162;Laerm;68342;52.598;13.450;2024-03-02T00:21:10;38.18;32.98;55.10;;
37162;Laerm;68342;52.598;13.450;2024-03-02T00:23:36;39.77;32.25;51.81;;
37162;Laerm;68342;52.598;13.450;2024-03-02T00:26:01;41.90;34.46;53.03;;
37162;Laerm;68342;52.598;13.450;2024-03-02T00:28:44;37.76;31.66;52.79;;
37162;Laerm;68342;52.598;13.450;2024-03-02T00:31:13;37.99;32.28;54.07;;
37162;Laerm;68342;52.598;13.450;2024-03-02T00:36:05;38.50;32.62;57.74;;
37162;Laerm;68342;52.598;13.450;2024-03-02T00:38:31;38.08;31.60;54.43;;
37162;Laerm;68342;52.598;13.450;2024-03-02T00:41:04;37.53;31.57;60.53;;
37162;Laerm;68342;52.598;13.450;2024-03-02T00:43:43;37.05;31.78;58.04;;
37162;Laerm;68342;52.598;13.450;2024-03-02T00:46:12;38.81;32.69;57.85;;
37162;Laerm;68342;52.598;13.450;2024-03-02T00:48:38;40.80;31.53;59.75;;
37162;Laerm;68342;52.598;13.450;2024-03-02T00:51:04;37.81;32.04;56.88;;
37162;Laerm;68342;52.598;13.450;2024-03-02T00:53:29;39.96;33.44;53.63;;
37162;Laerm;68342;52.598;13.450;2024-03-02T00:55:56;38.15;32.45;55.56;;
37162;Laerm;68342;52.598;13.450;2024-03-02T00:58:21;40.82;34.64;57.94;;
37162;Laerm;68342;52.598;13.450;2024-03-02T01:00:46;38.57;33.23;58.00;;
37162;Laerm;68342;52.598;13.450;2024-03-02T01:03:12;37.06;31.05;57.17;;
37162;Laerm;68342;52.598;13.450;2024-03-02T01:05:41;37.69;31.31;60.35;;
37162;Laerm;68342;52.598;13.450;2024-03-02T01:08:06;37.25;31.14;58.47;;
37162;Laerm;68342;52.598;13.450;2024-03-02T01:10:31;37.40;31.41;58.49;;
37162;Laerm;68342;52.598;13.450;2024-03-02T01:12:57;37.39;31.13;56.01;;
37162;Laerm;68342;52.598;13.450;2024-03-02T01:15:22;41.17;31.81;57.37;;
37162;Laerm;68342;52.598;13.450;2024-03-02T01:17:48;36.85;30.83;55.04;;
37162;Laerm;68342;52.598;13.450;2024-03-02T01:20:13;42.46;31.27;60.65;;
37162;Laerm;68342;52.598;13.450;2024-03-02T01:22:38;38.49;32.00;55.52;;
37162;Laerm;68342;52.598;13.450;2024-03-02T01:25:04;37.71;31.88;59.40;;
37162;Laerm;68342;52.598;13.450;2024-03-02T01:27:29;39.76;32.19;53.36;;
37162;Laerm;68342;52.598;13.450;2024-03-02T01:29:54;38.27;32.72;55.55;;
37162;Laerm;68342;52.598;13.450;2024-03-02T01:32:20;37.35;32.13;53.78;;
37162;Laerm;68342;52.598;13.450;2024-03-02T01:34:45;39.31;33.05;59.35;;
37162;Laerm;68342;52.598;13.450;2024-03-02T01:37:10;40.24;34.29;60.30;;
37162;Laerm;68342;52.598;13.450;2024-03-02T01:39:35;38.64;33.12;55.17;;
37162;Laerm;68342;52.598;13.450;2024-03-02T01:42:01;37.95;32.84;53.98;;
37162;Laerm;68342;52.598;13.450;2024-03-02T01:44:26;38.08;32.09;59.26;;
37162;Laerm;68342;52.598;13.450;2024-03-02T01:46:52;38.17;32.81;54.64;;
37162;Laerm;68342;52.598;13.450;2024-03-02T01:49:17;38.81;33.02;56.98;;
37162;Laerm;68342;52.598;13.450;2024-03-02T01:51:43;39.24;32.98;53.97;;
37162;Laerm;68342;52.598;13.450;2024-03-02T01:54:09;37.68;32.42;55.74;;
37162;Laerm;68342;52.598;13.450;2024-03-02T01:56:34;42.26;32.33;55.49;;
37162;Laerm;68342;52.598;13.450;2024-03-02T01:58:59;39.42;33.10;56.65;;
37162;Laerm;68342;52.598;13.450;2024-03-02T02:01:24;39.46;33.68;54.89;;
37162;Laerm;68342;52.598;13.450;2024-03-02T02:03:50;38.00;32.56;54.99;;
37162;Laerm;68342;52.598;13.450;2024-03-02T02:06:15;38.26;32.63;54.99;;
37162;Laerm;68342;52.598;13.450;2024-03-02T02:08:40;37.99;32.17;57.29;;
37162;Laerm;68342;52.598;13.450;2024-03-02T02:11:06;37.83;31.80;53.78;;
37162;Laerm;68342;52.598;13.450;2024-03-02T02:13:31;37.79;32.37;54.31;;
37162;Laerm;68342;52.598;13.450;2024-03-02T02:16:03;38.42;31.96;60.29;;
37162;Laerm;68342;52.598;13.450;2024-03-02T02:18:29;36.69;30.94;55.76;;
37162;Laerm;68342;52.598;13.450;2024-03-02T02:20:54;38.37;33.37;53.10;;
37162;Laerm;68342;52.598;13.450;2024-03-02T02:23:19;40.54;33.77;54.63;;
37162;Laerm;68342;52.598;13.450;2024-03-02T02:25:45;38.73;31.54;58.44;;
37162;Laerm;68342;52.598;13.450;2024-03-02T02:28:10;38.39;32.71;57.55;;
37162;Laerm;68342;52.598;13.450;2024-03-02T02:30:35;37.69;31.87;55.60;;
37162;Laerm;68342;52.598;13.450;2024-03-02T02:33:00;37.66;31.48;57.61;;
37162;Laerm;68342;52.598;13.450;2024-03-02T02:35:26;37.92;32.34;55.96;;
37162;Laerm;68342;52.598;13.450;2024-03-02T02:37:52;37.79;33.10;54.98;;
37162;Laerm;68342;52.598;13.450;2024-03-02T02:40:18;39.00;33.02;53.57;;
37162;Laerm;68342;52.598;13.450;2024-03-02T02:42:44;38.29;32.38;60.64;;
37162;Laerm;68342;52.598;13.450;2024-03-02T02:45:09;38.43;33.00;57.00;;
37162;Laerm;68342;52.598;13.450;2024-03-02T02:47:35;38.06;32.12;57.61;;
37162;Laerm;68342;52.598;13.450;2024-03-02T02:50:03;37.74;32.74;59.02;;
37162;Laerm;68342;52.598;13.450;2024-03-02T02:52:32;37.54;31.95;55.17;;
37162;Laerm;68342;52.598;13.450;2024-03-02T02:54:58;37.88;32.72;54.29;;
37162;Laerm;68342;52.598;13.450;2024-03-02T02:57:23;37.17;32.00;52.58;;
37162;Laerm;68342;52.598;13.450;2024-03-02T02:59:49;38.12;31.65;56.17;;
37162;Laerm;68342;52.598;13.450;2024-03-02T03:02:14;38.01;32.59;52.80;;
37162;Laerm;68342;52.598;13.450;2024-03-02T03:04:40;39.02;32.33;58.07;;
37162;Laerm;68342;52.598;13.450;2024-03-02T03:07:05;37.24;31.40;55.72;;
37162;Laerm;68342;52.598;13.450;2024-03-02T03:09:30;37.55;32.41;54.61;;
37162;Laerm;68342;52.598;13.450;2024-03-02T03:11:55;42.55;32.44;56.19;;
37162;Laerm;68342;52.598;13.450;2024-03-02T03:14:21;37.96;31.98;55.29;;
37162;Laerm;68342;52.598;13.450;2024-03-02T03:16:46;37.82;31.84;55.48;;
37162;Laerm;68342;52.598;13.450;2024-03-02T03:19:13;38.64;32.87;56.56;;
37162;Laerm;68342;52.598;13.450;2024-03-02T03:21:38;37.59;32.02;59.93;;
37162;Laerm;68342;52.598;13.450;2024-03-02T03:24:04;37.41;32.46;55.94;;
37162;Laerm;68342;52.598;13.450;2024-03-02T03:26:29;38.98;32.81;60.40;;
37162;Laerm;68342;52.598;13.450;2024-03-02T03:28:54;37.66;31.87;53.49;;
37162;Laerm;68342;52.598;13.450;2024-03-02T03:31:20;37.32;31.94;54.82;;
37162;Laerm;68342;52.598;13.450;2024-03-02T03:33:45;39.49;33.40;53.39;;
37162;Laerm;68342;52.598;13.450;2024-03-02T03:36:10;38.84;33.78;56.55;;
37162;Laerm;68342;52.598;13.450;2024-03-02T03:38:35;41.67;36.20;55.90;;
37162;Laerm;68342;52.598;13.450;2024-03-02T03:41:01;39.23;32.64;58.69;;
37162;Laerm;68342;52.598;13.450;2024-03-02T03:43:26;39.68;32.98;58.02;;
37162;Laerm;68342;52.598;13.450;2024-03-02T03:45:51;38.30;32.85;55.02;;
37162;Laerm;68342;52.598;13.450;2024-03-02T03:48:20;39.98;33.76;57.09;;
37162;Laerm;68342;52.598;13.450;2024-03-02T03:50:45;38.86;33.05;58.05;;
37162;Laerm;68342;52.598;13.450;2024-03-02T03:53:10;38.38;33.25;54.85;;
37162;Laerm;68342;52.598;13.450;2024-03-02T03:55:35;38.28;32.93;55.20;;
37162;Laerm;68342;52.598;13.450;2024-03-02T03:58:01;38.46;32.97;54.35;;
37162;Laerm;68342;52.598;13.450;2024-03-02T04:00:26;37.76;32.94;57.23;;
37162;Laerm;68342;52.598;13.450;2024-03-02T04:02:51;37.62;33.26;56.31;;
37162;Laerm;68342;52.598;13.450;2024-03-02T04:05:16;37.71;33.29;52.27;;
37162;Laerm;68342;52.598;13.450;2024-03-02T04:07:41;38.56;32.92;60.86;;
37162;Laerm;68342;52.598;13.450;2024-03-02T04:10:08;45.77;33.61;61.02;;
37162;Laerm;68342;52.598;13.450;2024-03-02T04:12:34;39.46;32.94;56.46;;
37162;Laerm;68342;52.598;13.450;2024-03-02T04:15:00;38.81;33.32;60.70;;
37162;Laerm;68342;52.598;13.450;2024-03-02T04:17:26;38.14;33.19;55.59;;
37162;Laerm;68342;52.598;13.450;2024-03-02T04:19:52;38.20;33.21;58.14;;
37162;Laerm;68342;52.598;13.450;2024-03-02T04:22:17;40.34;33.52;55.11;;
37162;Laerm;68342;52.598;13.450;2024-03-02T04:24:42;38.10;32.75;55.07;;
37162;Laerm;68342;52.598;13.450;2024-03-02T04:27:08;38.24;33.24;54.94;;
37162;Laerm;68342;52.598;13.450;2024-03-02T04:29:33;38.38;33.60;59.54;;
37162;Laerm;68342;52.598;13.450;2024-03-02T04:31:58;38.21;33.17;59.50;;
37162;Laerm;68342;52.598;13.450;2024-03-02T04:34:23;38.32;33.46;56.91;;
37162;Laerm;68342;52.598;13.450;2024-03-02T04:36:48;38.85;33.70;54.91;;
37162;Laerm;68342;52.598;13.450;2024-03-02T04:39:14;38.72;33.15;54.67;;
37162;Laerm;68342;52.598;13.450;2024-03-02T04:41:40;39.26;33.90;56.59;;
37162;Laerm;68342;52.598;13.450;2024-03-02T04:44:05;40.42;33.74;57.33;;
37162;Laerm;68342;52.598;13.450;2024-03-02T04:46:32;39.76;33.71;54.50;;
37162;Laerm;68342;52.598;13.450;2024-03-02T04:48:58;39.97;33.54;56.15;;
37162;Laerm;68342;52.598;13.450;2024-03-02T04:51:23;40.27;33.91;56.73;;
37162;Laerm;68342;52.598;13.450;2024-03-02T04:53:48;45.06;35.29;58.76;;
37162;Laerm;68342;52.598;13.450;2024-03-02T04:56:13;45.49;34.22;60.26;;
37162;Laerm;68342;52.598;13.450;2024-03-02T04:58:51;45.26;34.24;65.26;;
37162;Laerm;68342;52.598;13.450;2024-03-02T05:01:16;41.78;34.82;57.63;;
37162;Laerm;68342;52.598;13.450;2024-03-02T05:03:42;40.66;34.80;56.95;;
37162;Laerm;68342;52.598;13.450;2024-03-02T05:06:07;40.89;34.91;56.10;;
37162;Laerm;68342;52.598;13.450;2024-03-02T05:08:33;40.21;34.39;55.09;;
37162;Laerm;68342;52.598;13.450;2024-03-02T05:10:59;39.53;33.87;57.02;;
37162;Laerm;68342;52.598;13.450;2024-03-02T05:13:44;41.26;34.32;57.57;;
37162;Laerm;68342;52.598;13.450;2024-03-02T05:16:09;42.02;35.50;52.45;;
37162;Laerm;68342;52.598;13.450;2024-03-02T05:18:34;40.94;36.16;56.59;;
37162;Laerm;68342;52.598;13.450;2024-03-02T05:20:59;41.73;37.42;56.08;;
37162;Laerm;68342;52.598;13.450;2024-03-02T05:23:26;41.12;34.51;54.73;;
37162;Laerm;68342;52.598;13.450;2024-03-02T05:25:55;41.10;34.88;54.48;;
37162;Laerm;68342;52.598;13.450;2024-03-02T05:28:21;40.49;35.64;53.98;;
37162;Laerm;68342;52.598;13.450;2024-03-02T05:30:46;43.61;38.10;61.54;;
37162;Laerm;68342;52.598;13.450;2024-03-02T05:33:12;43.68;36.35;64.36;;
37162;Laerm;68342;52.598;13.450;2024-03-02T05:35:37;41.45;36.45;53.45;;
37162;Laerm;68342;52.598;13.450;2024-03-02T05:38:03;43.36;36.35;60.95;;
37162;Laerm;68342;52.598;13.450;2024-03-02T05:40:28;42.81;36.55;57.35;;
37162;Laerm;68342;52.598;13.450;2024-03-02T05:42:53;43.74;37.00;57.95;;
37162;Laerm;68342;52.598;13.450;2024-03-02T05:45:18;41.33;34.59;56.32;;
37162;Laerm;68342;52.598;13.450;2024-03-02T05:47:44;43.90;34.18;63.42;;
37162;Laerm;68342;52.598;13.450;2024-03-02T05:50:09;42.02;35.13;55.07;;
37162;Laerm;68342;52.598;13.450;2024-03-02T05:52:34;44.78;36.56;65.14;;
37162;Laerm;68342;52.598;13.450;2024-03-02T05:54:59;41.67;36.34;56.01;;
37162;Laerm;68342;52.598;13.450;2024-03-02T05:57:25;41.06;36.23;54.97;;
37162;Laerm;68342;52.598;13.450;2024-03-02T06:00:04;41.51;35.65;58.20;;
37162;Laerm;68342;52.598;13.450;2024-03-02T06:02:33;41.75;36.49;56.16;;
37162;Laerm;68342;52.598;13.450;2024-03-02T06:04:58;41.78;35.47;57.18;;
37162;Laerm;68342;52.598;13.450;2024-03-02T06:07:23;43.72;36.59;65.95;;
37162;Laerm;68342;52.598;13.450;2024-03-02T06:09:48;42.59;35.69;62.10;;
37162;Laerm;68342;52.598;13.450;2024-03-02T06:12:16;41.81;36.20;57.51;;
37162;Laerm;68342;52.598;13.450;2024-03-02T06:14:41;51.46;38.93;72.08;;
37162;Laerm;68342;52.598;13.450;2024-03-02T06:17:06;53.48;36.92;76.93;;
37162;Laerm;68342;52.598;13.450;2024-03-02T06:19:32;43.66;37.23;59.74;;
37162;Laerm;68342;52.598;13.450;2024-03-02T06:21:57;50.06;36.43;68.17;;
37162;Laerm;68342;52.598;13.450;2024-03-02T06:24:22;48.42;38.11;65.75;;
37162;Laerm;68342;52.598;13.450;2024-03-02T06:26:47;49.78;37.27;70.84;;
37162;Laerm;68342;52.598;13.450;2024-03-02T06:29:13;51.03;36.88;76.39;;
37162;Laerm;68342;52.598;13.450;2024-03-02T06:31:38;42.79;35.81;61.97;;
37162;Laerm;68342;52.598;13.450;2024-03-02T06:34:03;43.51;37.69;58.51;;
37162;Laerm;68342;52.598;13.450;2024-03-02T06:36:29;42.91;36.78;55.26;;
37162;Laerm;68342;52.598;13.450;2024-03-02T06:38:55;43.00;37.37;57.27;;
37162;Laerm;68342;52.598;13.450;2024-03-02T06:41:20;43.56;36.65;58.95;;
37162;Laerm;68342;52.598;13.450;2024-03-02T06:43:45;44.15;36.22;60.22;;
37162;Laerm;68342;52.598;13.450;2024-03-02T06:46:10;48.50;36.53;71.21;;
37162;Laerm;68342;52.598;13.450;2024-03-02T06:48:39;45.47;36.79;64.41;;
37162;Laerm;68342;52.598;13.450;2024-03-02T06:51:04;46.72;36.43;65.60;;
37162;Laerm;68342;52.598;13.450;2024-03-02T06:53:30;46.97;35.98;68.21;;
37162;Laerm;68342;52.598;13.450;2024-03-02T06:55:56;52.70;36.14;73.50;;
37162;Laerm;68342;52.598;13.450;2024-03-02T06:58:22;49.94;35.91;72.02;;
37162;Laerm;68342;52.598;13.450;2024-03-02T07:00:47;44.94;36.49;66.05;;
37162;Laerm;68342;52.598;13.450;2024-03-02T07:03:16;40.25;34.55;57.66;;
37162;Laerm;68342;52.598;13.450;2024-03-02T07:05:41;40.50;34.01;53.64;;
37162;Laerm;68342;52.598;13.450;2024-03-02T07:08:06;41.63;34.72;56.90;;
37162;Laerm;68342;52.598;13.450;2024-03-02T07:10:32;40.12;34.85;54.19;;
37162;Laerm;68342;52.598;13.450;2024-03-02T07:12:57;41.37;35.50;56.94;;
37162;Laerm;68342;52.598;13.450;2024-03-02T07:15:22;41.20;36.08;54.60;;
37162;Laerm;68342;52.598;13.450;2024-03-02T07:18:06;43.09;36.20;55.65;;
37162;Laerm;68342;52.598;13.450;2024-03-02T07:20:32;43.23;36.09;55.97;;
37162;Laerm;68342;52.598;13.450;2024-03-02T07:22:57;42.08;36.99;54.73;;
37162;Laerm;68342;52.598;13.450;2024-03-02T07:25:22;41.57;35.50;57.45;;
37162;Laerm;68342;52.598;13.450;2024-03-02T07:27:48;42.42;36.63;56.66;;
37162;Laerm;68342;52.598;13.450;2024-03-02T07:30:13;42.22;36.21;60.03;;
37162;Laerm;68342;52.598;13.450;2024-03-02T07:32:39;40.76;36.22;55.42;;
37162;Laerm;68342;52.598;13.450;2024-03-02T07:35:06;45.22;38.40;59.79;;
37162;Laerm;68342;52.598;13.450;2024-03-02T07:37:32;41.39;36.10;55.30;;
37162;Laerm;68342;52.598;13.450;2024-03-02T07:39:58;43.14;35.01;57.92;;
37162;Laerm;68342;52.598;13.450;2024-03-02T07:42:23;42.53;35.09;61.71;;
37162;Laerm;68342;52.598;13.450;2024-03-02T07:44:48;43.75;36.34;56.27;;
37162;Laerm;68342;52.598;13.450;2024-03-02T07:47:14;46.92;36.74;66.83;;
37162;Laerm;68342;52.598;13.450;2024-03-02T07:49:39;40.87;36.56;57.19;;
37162;Laerm;68342;52.598;13.450;2024-03-02T07:52:05;42.98;36.38;61.76;;
37162;Laerm;68342;52.598;13.450;2024-03-02T07:54:30;45.70;35.62;68.82;;
37162;Laerm;68342;52.598;13.450;2024-03-02T07:56:55;40.95;35.47;54.50;;
37162;Laerm;68342;52.598;13.450;2024-03-02T07:59:20;41.04;34.63;56.27;;
37162;Laerm;68342;52.598;13.450;2024-03-02T08:01:47;41.93;36.44;61.77;;
37162;Laerm;68342;52.598;13.450;2024-03-02T08:04:13;45.47;36.98;72.23;;
37162;Laerm;68342;52.598;13.450;2024-03-02T08:06:39;41.56;36.78;54.26;;
37162;Laerm;68342;52.598;13.450;2024-03-02T08:09:04;43.89;37.68;53.98;;
37162;Laerm;68342;52.598;13.450;2024-03-02T08:11:34;43.84;37.05;57.63;;
37162;Laerm;68342;52.598;13.450;2024-03-02T08:14:00;43.20;36.78;54.99;;
37162;Laerm;68342;52.598;13.450;2024-03-02T08:16:28;40.97;35.40;55.48;;
37162;Laerm;68342;52.598;13.450;2024-03-02T08:18:53;42.63;36.17;57.26;;
37162;Laerm;68342;52.598;13.450;2024-03-02T08:21:18;47.51;35.63;71.30;;
37162;Laerm;68342;52.598;13.450;2024-03-02T08:23:44;41.78;36.14;58.04;;
37162;Laerm;68342;52.598;13.450;2024-03-02T08:26:09;44.13;35.92;60.59;;
37162;Laerm;68342;52.598;13.450;2024-03-02T08:28:35;41.33;35.97;56.52;;
37162;Laerm;68342;52.598;13.450;2024-03-02T08:31:02;44.89;35.88;57.57;;
37162;Laerm;68342;52.598;13.450;2024-03-02T08:33:27;41.24;35.97;61.84;;
37162;Laerm;68342;52.598;13.450;2024-03-02T08:35:52;41.70;36.21;58.19;;
37162;Laerm;68342;52.598;13.450;2024-03-02T08:38:17;47.37;35.67;73.09;;
37162;Laerm;68342;52.598;13.450;2024-03-02T08:40:43;43.26;36.85;60.31;;
37162;Laerm;68342;52.598;13.450;2024-03-02T08:43:09;43.07;37.68;56.77;;
37162;Laerm;68342;52.598;13.450;2024-03-02T08:45:34;42.20;37.52;58.10;;
37162;Laerm;68342;52.598;13.450;2024-03-02T08:47:59;42.37;37.01;58.59;;
37162;Laerm;68342;52.598;13.450;2024-03-02T08:50:25;43.31;36.31;70.16;;
37162;Laerm;68342;52.598;13.450;2024-03-02T08:52:50;43.72;37.15;69.87;;
37162;Laerm;68342;52.598;13.450;2024-03-02T08:55:15;41.70;37.12;55.05;;
37162;Laerm;68342;52.598;13.450;2024-03-02T08:57:40;42.38;35.80;62.31;;
37162;Laerm;68342;52.598;13.450;2024-03-02T09:00:07;42.91;36.95;58.29;;
37162;Laerm;68342;52.598;13.450;2024-03-02T09:02:32;41.63;36.60;56.44;;
37162;Laerm;68342;52.598;13.450;2024-03-02T09:04:57;42.65;37.55;55.79;;
37162;Laerm;68342;52.598;13.450;2024-03-02T09:07:23;40.77;36.62;57.82;;
37162;Laerm;68342;52.598;13.450;2024-03-02T09:09:48;41.18;36.88;55.58;;
37162;Laerm;68342;52.598;13.450;2024-03-02T09:12:14;42.06;36.44;53.91;;
37162;Laerm;68342;52.598;13.450;2024-03-02T09:14:40;42.37;36.40;58.98;;
37162;Laerm;68342;52.598;13.450;2024-03-02T09:17:05;42.79;37.28;55.77;;
37162;Laerm;68342;52.598;13.450;2024-03-02T09:19:30;43.13;37.03;55.04;;
37162;Laerm;68342;52.598;13.450;2024-03-02T09:21:56;47.91;36.91;60.10;;
37162;Laerm;68342;52.598;13.450;2024-03-02T09:24:22;41.95;36.86;53.61;;
37162;Laerm;68342;52.598;13.450;2024-03-02T09:26:48;42.47;36.55;54.50;;
37162;Laerm;68342;52.598;13.450;2024-03-02T09:29:13;41.51;36.20;57.81;;
37162;Laerm;68342;52.598;13.450;2024-03-02T09:31:39;41.38;37.10;57.09;;
37162;Laerm;68342;52.598;13.450;2024-03-02T09:34:04;46.70;37.02;66.99;;
37162;Laerm;68342;52.598;13.450;2024-03-02T09:36:29;47.22;37.47;63.32;;
37162;Laerm;68342;52.598;13.450;2024-03-02T09:38:55;46.13;36.55;60.53;;
37162;Laerm;68342;52.598;13.450;2024-03-02T09:41:20;45.40;36.70;67.60;;
37162;Laerm;68342;52.598;13.450;2024-03-02T09:43:45;40.47;36.23;57.35;;
37162;Laerm;68342;52.598;13.450;2024-03-02T09:46:11;43.46;37.01;56.39;;
37162;Laerm;68342;52.598;13.450;2024-03-02T09:48:37;42.26;36.77;58.24;;
37162;Laerm;68342;52.598;13.450;2024-03-02T09:51:02;44.66;36.53;58.79;;
37162;Laerm;68342;52.598;13.450;2024-03-02T09:53:32;42.86;36.56;58.14;;
37162;Laerm;68342;52.598;13.450;2024-03-02T09:56:01;41.12;37.24;58.28;;
37162;Laerm;68342;52.598;13.450;2024-03-02T09:58:27;45.41;37.66;62.79;;
37162;Laerm;68342;52.598;13.450;2024-03-02T10:00:52;44.53;36.20;59.21;;
37162;Laerm;68342;52.598;13.450;2024-03-02T10:03:20;41.74;35.79;57.62;;
37162;Laerm;68342;52.598;13.450;2024-03-02T10:05:47;42.09;36.32;58.86;;
37162;Laerm;68342;52.598;13.450;2024-03-02T10:08:12;42.29;36.30;57.15;;
37162;Laerm;68342;52.598;13.450;2024-03-02T10:10:38;43.88;37.01;59.50;;
37162;Laerm;68342;52.598;13.450;2024-03-02T10:13:10;42.37;36.56;54.52;;
37162;Laerm;68342;52.598;13.450;2024-03-02T10:15:36;41.65;36.22;59.26;;
37162;Laerm;68342;52.598;13.450;2024-03-02T10:18:02;42.86;37.16;56.80;;
37162;Laerm;68342;52.598;13.450;2024-03-02T10:20:27;44.03;36.84;60.97;;
37162;Laerm;68342;52.598;13.450;2024-03-02T10:22:54;43.88;37.76;59.83;;
37162;Laerm;68342;52.598;13.450;2024-03-02T10:25:29;43.26;37.72;59.90;;
37162;Laerm;68342;52.598;13.450;2024-03-02T10:27:59;44.05;36.31;59.30;;
37162;Laerm;68342;52.598;13.450;2024-03-02T10:30:25;45.70;37.19;61.27;;
37162;Laerm;68342;52.598;13.450;2024-03-02T10:32:51;44.71;37.00;59.82;;
37162;Laerm;68342;52.598;13.450;2024-03-02T10:35:16;46.14;36.39;70.21;;
37162;Laerm;68342;52.598;13.450;2024-03-02T10:37:41;47.77;35.53;74.69;;
37162;Laerm;68342;52.598;13.450;2024-03-02T10:40:07;41.88;36.59;54.00;;
37162;Laerm;68342;52.598;13.450;2024-03-02T10:42:35;46.11;35.70;68.53;;
37162;Laerm;68342;52.598;13.450;2024-03-02T10:45:01;43.38;35.78;62.86;;
37162;Laerm;68342;52.598;13.450;2024-03-02T10:47:26;43.98;37.82;58.30;;
37162;Laerm;68342;52.598;13.450;2024-03-02T10:49:52;43.86;37.99;57.81;;
37162;Laerm;68342;52.598;13.450;2024-03-02T10:52:17;42.77;37.82;59.83;;
37162;Laerm;68342;52.598;13.450;2024-03-02T10:54:43;47.29;36.82;66.51;;
37162;Laerm;68342;52.598;13.450;2024-03-02T10:57:08;47.83;36.64;66.27;;
37162;Laerm;68342;52.598;13.450;2024-03-02T10:59:36;47.50;37.71;65.16;;
37162;Laerm;68342;52.598;13.450;2024-03-02T11:02:04;46.21;37.30;64.90;;
37162;Laerm;68342;52.598;13.450;2024-03-02T11:04:32;45.25;37.55;62.02;;
37162;Laerm;68342;52.598;13.450;2024-03-02T11:07:02;41.76;37.04;55.34;;
37162;Laerm;68342;52.598;13.450;2024-03-02T11:09:28;47.15;38.34;63.01;;
37162;Laerm;68342;52.598;13.450;2024-03-02T11:14:40;47.49;36.30;63.99;;
37162;Laerm;68342;52.598;13.450;2024-03-02T11:17:08;46.97;37.53;62.42;;
37162;Laerm;68342;52.598;13.450;2024-03-02T11:19:34;42.24;37.27;56.86;;
37162;Laerm;68342;52.598;13.450;2024-03-02T11:21:59;45.91;35.17;77.45;;
37162;Laerm;68342;52.598;13.450;2024-03-02T11:26:58;43.97;36.73;64.01;;
37162;Laerm;68342;52.598;13.450;2024-03-02T11:32:01;44.23;35.88;60.33;;
37162;Laerm;68342;52.598;13.450;2024-03-02T11:34:30;41.74;36.15;65.73;;
37162;Laerm;68342;52.598;13.450;2024-03-02T11:36:55;43.83;36.05;69.71;;
37162;Laerm;68342;52.598;13.450;2024-03-02T11:39:21;42.65;35.95;57.75;;
37162;Laerm;68342;52.598;13.450;2024-03-02T11:41:46;41.37;35.05;62.99;;
37162;Laerm;68342;52.598;13.450;2024-03-02T11:44:11;41.87;35.24;56.01;;
37162;Laerm;68342;52.598;13.450;2024-03-02T11:46:39;41.93;35.05;60.84;;
37162;Laerm;68342;52.598;13.450;2024-03-02T11:49:04;42.77;36.02;59.80;;
37162;Laerm;68342;52.598;13.450;2024-03-02T11:51:29;42.83;34.96;56.22;;
37162;Laerm;68342;52.598;13.450;2024-03-02T11:53:56;43.57;35.29;65.46;;
37162;Laerm;68342;52.598;13.450;2024-03-02T11:56:23;40.56;34.56;60.63;;
37162;Laerm;68342;52.598;13.450;2024-03-02T11:58:49;40.39;35.33;59.18;;
37162;Laerm;68342;52.598;13.450;2024-03-02T12:01:16;42.98;35.79;61.76;;
37162;Laerm;68342;52.598;13.450;2024-03-02T12:03:41;45.67;36.38;62.29;;
37162;Laerm;68342;52.598;13.450;2024-03-02T12:06:06;42.63;35.65;57.13;;
37162;Laerm;68342;52.598;13.450;2024-03-02T12:08:32;42.55;35.90;55.03;;
37162;Laerm;68342;52.598;13.450;2024-03-02T12:10:58;43.59;35.64;65.88;;
37162;Laerm;68342;52.598;13.450;2024-03-02T12:13:23;41.44;35.99;59.21;;
37162;Laerm;68342;52.598;13.450;2024-03-02T12:15:52;42.22;36.62;61.71;;
37162;Laerm;68342;52.598;13.450;2024-03-02T12:18:17;44.26;36.48;65.15;;
37162;Laerm;68342;52.598;13.450;2024-03-02T12:20:43;43.01;36.90;63.27;;
37162;Laerm;68342;52.598;13.450;2024-03-02T12:23:08;41.78;35.18;67.10;;
37162;Laerm;68342;52.598;13.450;2024-03-02T12:25:34;40.56;34.75;55.41;;
37162;Laerm;68342;52.598;13.450;2024-03-02T12:28:00;42.26;35.62;57.36;;
37162;Laerm;68342;52.598;13.450;2024-03-02T12:30:26;42.37;36.95;58.72;;
37162;Laerm;68342;52.598;13.450;2024-03-02T12:32:51;41.88;35.60;59.58;;
37162;Laerm;68342;52.598;13.450;2024-03-02T12:35:17;41.71;35.74;59.15;;
37162;Laerm;68342;52.598;13.450;2024-03-02T12:37:52;42.97;35.31;58.66;;
37162;Laerm;68342;52.598;13.450;2024-03-02T12:40:18;43.64;34.75;67.65;;
37162;Laerm;68342;52.598;13.450;2024-03-02T12:42:47;43.96;34.80;58.28;;
37162;Laerm;68342;52.598;13.450;2024-03-02T12:45:13;44.59;35.61;67.90;;
37162;Laerm;68342;52.598;13.450;2024-03-02T12:47:39;43.36;36.15;62.88;;
37162;Laerm;68342;52.598;13.450;2024-03-02T12:50:04;42.48;36.06;62.41;;
37162;Laerm;68342;52.598;13.450;2024-03-02T12:52:30;41.24;35.04;60.49;;
37162;Laerm;68342;52.598;13.450;2024-03-02T12:54:57;41.58;34.90;61.97;;
37162;Laerm;68342;52.598;13.450;2024-03-02T12:57:26;41.77;36.64;60.72;;
37162;Laerm;68342;52.598;13.450;2024-03-02T13:00:00;44.48;36.09;58.52;;
37162;Laerm;68342;52.598;13.450;2024-03-02T13:02:29;42.47;36.15;65.65;;
37162;Laerm;68342;52.598;13.450;2024-03-02T13:04:55;41.94;36.08;60.66;;
37162;Laerm;68342;52.598;13.450;2024-03-02T13:07:21;42.55;35.95;64.68;;
37162;Laerm;68342;52.598;13.450;2024-03-02T13:09:51;44.60;37.39;66.17;;
37162;Laerm;68342;52.598;13.450;2024-03-02T13:12:17;43.22;36.96;62.70;;
37162;Laerm;68342;52.598;13.450;2024-03-02T13:14:42;43.75;36.56;66.42;;
37162;Laerm;68342;52.598;13.450;2024-03-02T13:17:08;42.95;37.18;60.12;;
37162;Laerm;68342;52.598;13.450;2024-03-02T13:19:34;42.60;37.19;64.16;;
37162;Laerm;68342;52.598;13.450;2024-03-02T13:21:59;46.47;36.53;64.73;;
37162;Laerm;68342;52.598;13.450;2024-03-02T13:24:24;42.71;34.97;57.84;;
37162;Laerm;68342;52.598;13.450;2024-03-02T13:26:53;41.70;34.73;63.82;;
37162;Laerm;68342;52.598;13.450;2024-03-02T13:29:21;45.74;36.09;66.76;;
37162;Laerm;68342;52.598;13.450;2024-03-02T13:31:46;53.46;36.42;71.05;;
37162;Laerm;68342;52.598;13.450;2024-03-02T13:34:11;42.37;36.15;63.23;;
37162;Laerm;68342;52.598;13.450;2024-03-02T13:36:37;40.20;34.70;59.60;;